sensor_id;sensor_type;location;lat;lon;timestamp;P1;durP1;ratioP1;P2;durP2;ratioP2
59960;SDS011;55902;-37.980;-63.602;2023-04-24T00:00:43;9.68;;;4.75;;
59960;SDS011;55902;-37.980;-63.602;2023-04-24T00:03:10;12.23;;;4.38;;
59960;SDS011;55902;-37.980;-63.602;2023-04-24T00:05:38;13.77;;;4.57;;
59960;SDS011;55902;-37.980;-63.602;2023-04-24T00:08:05;14.88;;;4.70;;
59960;SDS011;55902;-37.980;-63.602;2023-04-24T00:10:32;6.72;;;4.13;;
59960;SDS011;55902;-37.980;-63.602;2023-04-24T00:13:00;8.63;;;4.20;;
59960;SDS011;55902;-37.980;-63.602;2023-04-24T00:15:27;8.85;;;3.72;;
59960;SDS011;55902;-37.980;-63.602;2023-04-24T00:17:54;8.90;;;4.30;;
59960;SDS011;55902;-37.980;-63.602;2023-04-24T00:20:21;9.73;;;4.15;;
59960;SDS011;55902;-37.980;-63.602;2023-04-24T00:22:48;7.22;;;3.80;;
59960;SDS011;55902;-37.980;-63.602;2023-04-24T00:25:15;10.15;;;3.92;;
59960;SDS011;55902;-37.980;-63.602;2023-04-24T00:27:42;10.15;;;3.85;;
59960;SDS011;55902;-37.980;-63.602;2023-04-24T00:30:09;8.07;;;4.07;;
59960;SDS011;55902;-37.980;-63.602;2023-04-24T00:32:37;6.53;;;4.15;;
59960;SDS011;55902;-37.980;-63.602;2023-04-24T00:35:04;8.23;;;3.72;;
59960;SDS011;55902;-37.980;-63.602;2023-04-24T00:37:31;7.40;;;4.15;;
59960;SDS011;55902;-37.980;-63.602;2023-04-24T00:39:58;7.85;;;3.90;;
59960;SDS011;55902;-37.980;-63.602;2023-04-24T00:42:25;9.23;;;4.28;;
59960;SDS011;55902;-37.980;-63.602;2023-04-24T00:44:53;7.30;;;3.80;;
59960;SDS011;55902;-37.980;-63.602;2023-04-24T00:47:20;7.90;;;3.80;;
59960;SDS011;55902;-37.980;-63.602;2023-04-24T00:49:50;7.50;;;3.97;;
59960;SDS011;55902;-37.980;-63.602;2023-04-24T00:52:17;5.82;;;3.35;;
59960;SDS011;55902;-37.980;-63.602;2023-04-24T00:54:44;11.98;;;4.30;;
59960;SDS011;55902;-37.980;-63.602;2023-04-24T00:57:12;9.48;;;3.90;;
59960;SDS011;55902;-37.980;-63.602;2023-04-24T00:59:41;6.68;;;3.70;;
59960;SDS011;55902;-37.980;-63.602;2023-04-24T01:02:09;8.20;;;3.70;;
59960;SDS011;55902;-37.980;-63.602;2023-04-24T01:04:37;10.13;;;3.97;;
59960;SDS011;55902;-37.980;-63.602;2023-04-24T01:07:04;6.65;;;4.03;;
59960;SDS011;55902;-37.980;-63.602;2023-04-24T01:09:39;6.68;;;3.75;;
59960;SDS011;55902;-37.980;-63.602;2023-04-24T01:15:29;7.03;;;4.00;;
59960;SDS011;55902;-37.980;-63.602;2023-04-24T01:17:58;10.55;;;4.30;;
59960;SDS011;55902;-37.980;-63.602;2023-04-24T01:20:25;6.43;;;3.80;;
59960;SDS011;55902;-37.980;-63.602;2023-04-24T01:22:54;6.85;;;3.80;;
59960;SDS011;55902;-37.980;-63.602;2023-04-24T01:25:22;8.38;;;4.25;;
59960;SDS011;55902;-37.980;-63.602;2023-04-24T01:27:50;5.80;;;3.80;;
59960;SDS011;55902;-37.980;-63.602;2023-04-24T01:30:18;8.27;;;4.10;;
59960;SDS011;55902;-37.980;-63.602;2023-04-24T01:32:45;10.38;;;4.25;;
59960;SDS011;55902;-37.980;-63.602;2023-04-24T01:35:12;6.75;;;3.85;;
59960;SDS011;55902;-37.980;-63.602;2023-04-24T01:37:39;8.50;;;4.47;;
59960;SDS011;55902;-37.980;-63.602;2023-04-24T01:40:07;11.30;;;4.38;;
59960;SDS011;55902;-37.980;-63.602;2023-04-24T01:42:34;10.75;;;4.40;;
59960;SDS011;55902;-37.980;-63.602;2023-04-24T01:45:02;8.50;;;4.03;;
59960;SDS011;55902;-37.980;-63.602;2023-04-24T01:47:30;9.20;;;4.10;;
59960;SDS011;55902;-37.980;-63.602;2023-04-24T01:49:58;7.25;;;4.35;;
59960;SDS011;55902;-37.980;-63.602;2023-04-24T01:52:25;12.23;;;5.53;;
59960;SDS011;55902;-37.980;-63.602;2023-04-24T01:54:52;10.50;;;5.85;;
59960;SDS011;55902;-37.980;-63.602;2023-04-24T01:57:21;13.00;;;5.63;;
59960;SDS011;55902;-37.980;-63.602;2023-04-24T01:59:48;9.27;;;4.70;;
59960;SDS011;55902;-37.980;-63.602;2023-04-24T02:02:15;9.63;;;4.60;;
59960;SDS011;55902;-37.980;-63.602;2023-04-24T02:04:42;7.15;;;4.10;;
59960;SDS011;55902;-37.980;-63.602;2023-04-24T02:07:09;7.78;;;4.43;;
59960;SDS011;55902;-37.980;-63.602;2023-04-24T02:09:36;8.48;;;4.85;;
59960;SDS011;55902;-37.980;-63.602;2023-04-24T02:12:03;6.95;;;4.43;;
59960;SDS011;55902;-37.980;-63.602;2023-04-24T02:14:30;7.60;;;4.30;;
59960;SDS011;55902;-37.980;-63.602;2023-04-24T02:16:57;9.05;;;4.55;;
59960;SDS011;55902;-37.980;-63.602;2023-04-24T02:19:24;7.97;;;4.70;;
59960;SDS011;55902;-37.980;-63.602;2023-04-24T02:21:51;10.27;;;4.82;;
59960;SDS011;55902;-37.980;-63.602;2023-04-24T02:24:19;9.65;;;4.45;;
59960;SDS011;55902;-37.980;-63.602;2023-04-24T02:26:46;9.23;;;5.07;;
59960;SDS011;55902;-37.980;-63.602;2023-04-24T02:29:13;10.93;;;4.93;;
59960;SDS011;55902;-37.980;-63.602;2023-04-24T02:31:40;11.70;;;5.40;;
59960;SDS011;55902;-37.980;-63.602;2023-04-24T02:34:07;6.95;;;4.30;;
59960;SDS011;55902;-37.980;-63.602;2023-04-24T02:36:34;10.05;;;5.15;;
59960;SDS011;55902;-37.980;-63.602;2023-04-24T02:39:01;9.98;;;4.97;;
59960;SDS011;55902;-37.980;-63.602;2023-04-24T02:41:29;9.55;;;4.70;;
59960;SDS011;55902;-37.980;-63.602;2023-04-24T02:43:58;8.00;;;4.78;;
59960;SDS011;55902;-37.980;-63.602;2023-04-24T02:46:25;8.20;;;4.82;;
59960;SDS011;55902;-37.980;-63.602;2023-04-24T02:48:56;9.27;;;4.75;;
59960;SDS011;55902;-37.980;-63.602;2023-04-24T02:51:23;9.60;;;4.88;;
59960;SDS011;55902;-37.980;-63.602;2023-04-24T02:53:50;14.60;;;5.03;;
59960;SDS011;55902;-37.980;-63.602;2023-04-24T02:56:17;10.43;;;5.05;;
59960;SDS011;55902;-37.980;-63.602;2023-04-24T02:58:44;9.38;;;4.75;;
59960;SDS011;55902;-37.980;-63.602;2023-04-24T03:01:11;9.32;;;4.70;;
59960;SDS011;55902;-37.980;-63.602;2023-04-24T03:03:38;8.30;;;4.68;;
59960;SDS011;55902;-37.980;-63.602;2023-04-24T03:06:05;8.73;;;5.00;;
59960;SDS011;55902;-37.980;-63.602;2023-04-24T03:08:33;9.35;;;4.82;;
59960;SDS011;55902;-37.980;-63.602;2023-04-24T03:11:00;9.38;;;5.03;;
59960;SDS011;55902;-37.980;-63.602;2023-04-24T03:13:28;10.65;;;5.15;;
59960;SDS011;55902;-37.980;-63.602;2023-04-24T03:15:55;8.90;;;5.18;;
59960;SDS011;55902;-37.980;-63.602;2023-04-24T03:18:22;8.45;;;5.30;;
59960;SDS011;55902;-37.980;-63.602;2023-04-24T03:20:49;10.40;;;5.30;;
59960;SDS011;55902;-37.980;-63.602;2023-04-24T03:23:16;8.15;;;4.78;;
59960;SDS011;55902;-37.980;-63.602;2023-04-24T03:25:43;8.95;;;5.40;;
59960;SDS011;55902;-37.980;-63.602;2023-04-24T03:28:10;15.23;;;5.60;;
59960;SDS011;55902;-37.980;-63.602;2023-04-24T03:30:37;9.80;;;5.03;;
59960;SDS011;55902;-37.980;-63.602;2023-04-24T03:33:04;10.73;;;5.50;;
59960;SDS011;55902;-37.980;-63.602;2023-04-24T03:35:32;8.88;;;5.35;;
59960;SDS011;55902;-37.980;-63.602;2023-04-24T03:37:59;10.02;;;5.38;;
59960;SDS011;55902;-37.980;-63.602;2023-04-24T03:40:26;10.18;;;5.53;;
59960;SDS011;55902;-37.980;-63.602;2023-04-24T03:42:57;10.20;;;5.65;;
59960;SDS011;55902;-37.980;-63.602;2023-04-24T03:45:25;10.07;;;5.80;;
59960;SDS011;55902;-37.980;-63.602;2023-04-24T03:47:52;8.52;;;5.38;;
59960;SDS011;55902;-37.980;-63.602;2023-04-24T03:50:18;10.63;;;5.47;;
59960;SDS011;55902;-37.980;-63.602;2023-04-24T03:52:45;10.43;;;5.72;;
59960;SDS011;55902;-37.980;-63.602;2023-04-24T03:55:12;11.90;;;5.97;;
59960;SDS011;55902;-37.980;-63.602;2023-04-24T03:57:40;10.63;;;5.55;;
59960;SDS011;55902;-37.980;-63.602;2023-04-24T04:00:07;11.30;;;5.50;;
59960;SDS011;55902;-37.980;-63.602;2023-04-24T04:02:35;8.70;;;5.55;;
59960;SDS011;55902;-37.980;-63.602;2023-04-24T04:05:02;9.60;;;5.63;;
59960;SDS011;55902;-37.980;-63.602;2023-04-24T04:07:29;12.13;;;5.57;;
59960;SDS011;55902;-37.980;-63.602;2023-04-24T04:09:56;11.20;;;5.35;;
59960;SDS011;55902;-37.980;-63.602;2023-04-24T04:12:23;10.35;;;5.88;;
59960;SDS011;55902;-37.980;-63.602;2023-04-24T04:14:50;10.32;;;6.25;;
59960;SDS011;55902;-37.980;-63.602;2023-04-24T04:17:17;10.80;;;5.75;;
59960;SDS011;55902;-37.980;-63.602;2023-04-24T04:19:44;10.05;;;5.82;;
59960;SDS011;55902;-37.980;-63.602;2023-04-24T04:22:11;12.13;;;5.90;;
59960;SDS011;55902;-37.980;-63.602;2023-04-24T04:24:38;14.98;;;6.55;;
59960;SDS011;55902;-37.980;-63.602;2023-04-24T04:27:06;12.75;;;6.47;;
59960;SDS011;55902;-37.980;-63.602;2023-04-24T04:29:33;8.65;;;5.90;;
59960;SDS011;55902;-37.980;-63.602;2023-04-24T04:32:01;12.48;;;6.30;;
59960;SDS011;55902;-37.980;-63.602;2023-04-24T04:34:28;10.27;;;5.80;;
59960;SDS011;55902;-37.980;-63.602;2023-04-24T04:36:57;11.98;;;6.20;;
59960;SDS011;55902;-37.980;-63.602;2023-04-24T04:39:27;13.20;;;6.40;;
59960;SDS011;55902;-37.980;-63.602;2023-04-24T04:41:55;10.43;;;5.80;;
59960;SDS011;55902;-37.980;-63.602;2023-04-24T04:44:22;13.30;;;6.30;;
59960;SDS011;55902;-37.980;-63.602;2023-04-24T04:46:49;8.52;;;6.10;;
59960;SDS011;55902;-37.980;-63.602;2023-04-24T04:49:18;9.13;;;6.40;;
59960;SDS011;55902;-37.980;-63.602;2023-04-24T04:51:47;11.18;;;6.63;;
59960;SDS011;55902;-37.980;-63.602;2023-04-24T04:54:14;12.85;;;6.50;;
59960;SDS011;55902;-37.980;-63.602;2023-04-24T04:56:41;9.15;;;5.93;;
59960;SDS011;55902;-37.980;-63.602;2023-04-24T04:59:08;10.45;;;6.15;;
59960;SDS011;55902;-37.980;-63.602;2023-04-24T05:01:36;12.30;;;6.70;;
59960;SDS011;55902;-37.980;-63.602;2023-04-24T05:04:03;8.95;;;6.32;;
59960;SDS011;55902;-37.980;-63.602;2023-04-24T05:06:30;10.00;;;6.47;;
59960;SDS011;55902;-37.980;-63.602;2023-04-24T05:08:57;11.55;;;6.60;;
59960;SDS011;55902;-37.980;-63.602;2023-04-24T05:11:24;11.07;;;6.47;;
59960;SDS011;55902;-37.980;-63.602;2023-04-24T05:13:51;10.20;;;5.82;;
59960;SDS011;55902;-37.980;-63.602;2023-04-24T05:16:18;13.10;;;6.95;;
59960;SDS011;55902;-37.980;-63.602;2023-04-24T05:18:45;13.15;;;7.30;;
59960;SDS011;55902;-37.980;-63.602;2023-04-24T05:21:12;11.48;;;6.35;;
59960;SDS011;55902;-37.980;-63.602;2023-04-24T05:23:39;10.90;;;6.75;;
59960;SDS011;55902;-37.980;-63.602;2023-04-24T05:26:06;11.40;;;6.57;;
59960;SDS011;55902;-37.980;-63.602;2023-04-24T05:28:33;9.38;;;6.25;;
59960;SDS011;55902;-37.980;-63.602;2023-04-24T05:31:02;9.77;;;6.00;;
59960;SDS011;55902;-37.980;-63.602;2023-04-24T05:33:29;8.00;;;5.93;;
59960;SDS011;55902;-37.980;-63.602;2023-04-24T05:35:56;11.93;;;6.63;;
59960;SDS011;55902;-37.980;-63.602;2023-04-24T05:38:23;10.35;;;5.82;;
59960;SDS011;55902;-37.980;-63.602;2023-04-24T05:40:50;13.40;;;6.43;;
59960;SDS011;55902;-37.980;-63.602;2023-04-24T05:43:17;9.88;;;5.68;;
59960;SDS011;55902;-37.980;-63.602;2023-04-24T05:45:44;9.05;;;6.30;;
59960;SDS011;55902;-37.980;-63.602;2023-04-24T05:48:11;10.65;;;6.72;;
59960;SDS011;55902;-37.980;-63.602;2023-04-24T05:50:38;11.20;;;6.47;;
59960;SDS011;55902;-37.980;-63.602;2023-04-24T05:53:05;9.07;;;6.40;;
59960;SDS011;55902;-37.980;-63.602;2023-04-24T05:55:32;12.02;;;5.93;;
59960;SDS011;55902;-37.980;-63.602;2023-04-24T05:57:59;15.43;;;6.57;;
59960;SDS011;55902;-37.980;-63.602;2023-04-24T06:00:26;8.70;;;6.00;;
59960;SDS011;55902;-37.980;-63.602;2023-04-24T06:02:54;11.15;;;5.65;;
59960;SDS011;55902;-37.980;-63.602;2023-04-24T06:05:21;8.80;;;5.80;;
59960;SDS011;55902;-37.980;-63.602;2023-04-24T06:07:48;13.13;;;6.78;;
59960;SDS011;55902;-37.980;-63.602;2023-04-24T06:10:15;11.63;;;6.70;;
59960;SDS011;55902;-37.980;-63.602;2023-04-24T06:12:42;11.88;;;5.72;;
59960;SDS011;55902;-37.980;-63.602;2023-04-24T06:15:12;11.10;;;6.53;;
59960;SDS011;55902;-37.980;-63.602;2023-04-24T06:17:39;10.48;;;7.00;;
59960;SDS011;55902;-37.980;-63.602;2023-04-24T06:20:06;9.05;;;6.55;;
59960;SDS011;55902;-37.980;-63.602;2023-04-24T06:22:33;11.40;;;6.72;;
59960;SDS011;55902;-37.980;-63.602;2023-04-24T06:25:00;12.90;;;6.70;;
59960;SDS011;55902;-37.980;-63.602;2023-04-24T06:27:27;11.73;;;7.40;;
59960;SDS011;55902;-37.980;-63.602;2023-04-24T06:29:54;12.35;;;6.95;;
59960;SDS011;55902;-37.980;-63.602;2023-04-24T06:32:22;12.07;;;6.97;;
59960;SDS011;55902;-37.980;-63.602;2023-04-24T06:34:53;12.65;;;7.20;;
59960;SDS011;55902;-37.980;-63.602;2023-04-24T06:37:20;15.88;;;7.88;;
59960;SDS011;55902;-37.980;-63.602;2023-04-24T06:39:47;12.07;;;7.45;;
59960;SDS011;55902;-37.980;-63.602;2023-04-24T06:42:14;14.48;;;7.95;;
59960;SDS011;55902;-37.980;-63.602;2023-04-24T06:44:41;12.02;;;7.30;;
59960;SDS011;55902;-37.980;-63.602;2023-04-24T06:47:08;12.80;;;7.28;;
59960;SDS011;55902;-37.980;-63.602;2023-04-24T06:49:37;12.25;;;7.55;;
59960;SDS011;55902;-37.980;-63.602;2023-04-24T06:52:05;10.90;;;7.15;;
59960;SDS011;55902;-37.980;-63.602;2023-04-24T06:54:32;15.90;;;7.13;;
59960;SDS011;55902;-37.980;-63.602;2023-04-24T06:57:00;12.13;;;7.28;;
59960;SDS011;55902;-37.980;-63.602;2023-04-24T06:59:28;12.13;;;7.10;;
59960;SDS011;55902;-37.980;-63.602;2023-04-24T07:01:56;12.15;;;7.50;;
59960;SDS011;55902;-37.980;-63.602;2023-04-24T07:04:23;14.60;;;6.95;;
59960;SDS011;55902;-37.980;-63.602;2023-04-24T07:10:12;11.20;;;6.65;;
59960;SDS011;55902;-37.980;-63.602;2023-04-24T07:12:39;12.20;;;6.82;;
59960;SDS011;55902;-37.980;-63.602;2023-04-24T07:15:07;11.52;;;7.05;;
59960;SDS011;55902;-37.980;-63.602;2023-04-24T07:17:34;10.73;;;7.03;;
59960;SDS011;55902;-37.980;-63.602;2023-04-24T07:20:04;11.07;;;7.07;;
59960;SDS011;55902;-37.980;-63.602;2023-04-24T07:22:37;10.57;;;6.28;;
59960;SDS011;55902;-37.980;-63.602;2023-04-24T07:25:04;17.15;;;7.35;;
59960;SDS011;55902;-37.980;-63.602;2023-04-24T07:27:31;14.60;;;7.10;;
59960;SDS011;55902;-37.980;-63.602;2023-04-24T07:30:04;11.10;;;6.82;;
59960;SDS011;55902;-37.980;-63.602;2023-04-24T07:32:32;11.70;;;6.60;;
59960;SDS011;55902;-37.980;-63.602;2023-04-24T07:34:59;10.68;;;7.00;;
59960;SDS011;55902;-37.980;-63.602;2023-04-24T07:37:26;9.25;;;6.40;;
59960;SDS011;55902;-37.980;-63.602;2023-04-24T07:39:54;12.93;;;6.80;;
59960;SDS011;55902;-37.980;-63.602;2023-04-24T07:42:21;12.52;;;7.10;;
59960;SDS011;55902;-37.980;-63.602;2023-04-24T07:44:48;12.27;;;7.00;;
59960;SDS011;55902;-37.980;-63.602;2023-04-24T07:47:16;12.30;;;7.00;;
59960;SDS011;55902;-37.980;-63.602;2023-04-24T07:49:43;9.80;;;6.63;;
59960;SDS011;55902;-37.980;-63.602;2023-04-24T07:52:10;11.18;;;6.75;;
59960;SDS011;55902;-37.980;-63.602;2023-04-24T07:54:37;9.50;;;6.30;;
59960;SDS011;55902;-37.980;-63.602;2023-04-24T07:57:04;14.48;;;6.78;;
59960;SDS011;55902;-37.980;-63.602;2023-04-24T07:59:32;9.95;;;6.43;;
59960;SDS011;55902;-37.980;-63.602;2023-04-24T08:01:59;13.55;;;7.80;;
59960;SDS011;55902;-37.980;-63.602;2023-04-24T08:04:27;10.77;;;7.28;;
59960;SDS011;55902;-37.980;-63.602;2023-04-24T08:06:54;18.88;;;7.68;;
59960;SDS011;55902;-37.980;-63.602;2023-04-24T08:09:21;15.05;;;7.53;;
59960;SDS011;55902;-37.980;-63.602;2023-04-24T08:11:48;10.43;;;6.68;;
59960;SDS011;55902;-37.980;-63.602;2023-04-24T08:14:15;10.57;;;6.95;;
59960;SDS011;55902;-37.980;-63.602;2023-04-24T08:16:42;13.80;;;6.70;;
59960;SDS011;55902;-37.980;-63.602;2023-04-24T08:19:09;12.43;;;7.50;;
59960;SDS011;55902;-37.980;-63.602;2023-04-24T08:21:36;12.30;;;7.75;;
59960;SDS011;55902;-37.980;-63.602;2023-04-24T08:24:03;14.52;;;7.45;;
59960;SDS011;55902;-37.980;-63.602;2023-04-24T08:26:33;10.55;;;6.47;;
59960;SDS011;55902;-37.980;-63.602;2023-04-24T08:29:00;12.10;;;6.72;;
59960;SDS011;55902;-37.980;-63.602;2023-04-24T08:31:27;8.65;;;6.45;;
59960;SDS011;55902;-37.980;-63.602;2023-04-24T08:33:55;10.82;;;6.55;;
59960;SDS011;55902;-37.980;-63.602;2023-04-24T08:36:21;10.98;;;6.82;;
59960;SDS011;55902;-37.980;-63.602;2023-04-24T08:38:49;13.68;;;7.25;;
59960;SDS011;55902;-37.980;-63.602;2023-04-24T08:41:16;14.45;;;6.47;;
59960;SDS011;55902;-37.980;-63.602;2023-04-24T08:43:47;11.90;;;7.30;;
59960;SDS011;55902;-37.980;-63.602;2023-04-24T08:46:16;12.50;;;7.30;;
59960;SDS011;55902;-37.980;-63.602;2023-04-24T08:48:44;11.15;;;6.80;;
59960;SDS011;55902;-37.980;-63.602;2023-04-24T08:51:14;12.57;;;6.85;;
59960;SDS011;55902;-37.980;-63.602;2023-04-24T08:53:42;9.63;;;6.38;;
59960;SDS011;55902;-37.980;-63.602;2023-04-24T08:56:11;14.65;;;7.65;;
59960;SDS011;55902;-37.980;-63.602;2023-04-24T08:58:38;14.57;;;8.25;;
59960;SDS011;55902;-37.980;-63.602;2023-04-24T09:01:06;13.65;;;7.88;;
59960;SDS011;55902;-37.980;-63.602;2023-04-24T09:03:33;13.02;;;7.10;;
59960;SDS011;55902;-37.980;-63.602;2023-04-24T09:06:01;13.07;;;7.43;;
59960;SDS011;55902;-37.980;-63.602;2023-04-24T09:08:29;13.30;;;7.38;;
59960;SDS011;55902;-37.980;-63.602;2023-04-24T09:10:58;12.63;;;7.40;;
59960;SDS011;55902;-37.980;-63.602;2023-04-24T09:13:28;12.38;;;7.65;;
59960;SDS011;55902;-37.980;-63.602;2023-04-24T09:15:56;14.30;;;7.57;;
59960;SDS011;55902;-37.980;-63.602;2023-04-24T09:18:23;13.27;;;8.07;;
59960;SDS011;55902;-37.980;-63.602;2023-04-24T09:21:08;13.57;;;7.07;;
59960;SDS011;55902;-37.980;-63.602;2023-04-24T09:23:35;15.35;;;7.35;;
59960;SDS011;55902;-37.980;-63.602;2023-04-24T09:26:03;11.02;;;7.70;;
59960;SDS011;55902;-37.980;-63.602;2023-04-24T09:28:37;12.70;;;7.25;;
59960;SDS011;55902;-37.980;-63.602;2023-04-24T09:31:09;10.82;;;6.40;;
59960;SDS011;55902;-37.980;-63.602;2023-04-24T09:43:55;14.43;;;7.43;;
59960;SDS011;55902;-37.980;-63.602;2023-04-24T09:46:30;14.48;;;6.93;;
59960;SDS011;55902;-37.980;-63.602;2023-04-24T09:49:03;13.60;;;7.40;;
59960;SDS011;55902;-37.980;-63.602;2023-04-24T09:51:41;14.07;;;7.72;;
59960;SDS011;55902;-37.980;-63.602;2023-04-24T09:54:15;12.48;;;6.65;;
59960;SDS011;55902;-37.980;-63.602;2023-04-24T09:56:44;9.68;;;6.72;;
59960;SDS011;55902;-37.980;-63.602;2023-04-24T09:59:14;12.70;;;7.18;;
59960;SDS011;55902;-37.980;-63.602;2023-04-24T10:01:42;12.55;;;7.13;;
59960;SDS011;55902;-37.980;-63.602;2023-04-24T10:04:15;15.77;;;7.70;;
59960;SDS011;55902;-37.980;-63.602;2023-04-24T10:06:47;12.15;;;7.07;;
59960;SDS011;55902;-37.980;-63.602;2023-04-24T10:09:19;10.50;;;6.60;;
59960;SDS011;55902;-37.980;-63.602;2023-04-24T10:11:51;9.57;;;7.20;;
59960;SDS011;55902;-37.980;-63.602;2023-04-24T10:14:20;11.55;;;6.30;;
59960;SDS011;55902;-37.980;-63.602;2023-04-24T10:16:49;12.85;;;7.38;;
59960;SDS011;55902;-37.980;-63.602;2023-04-24T10:19:19;10.60;;;7.40;;
59960;SDS011;55902;-37.980;-63.602;2023-04-24T10:21:48;15.35;;;7.80;;
59960;SDS011;55902;-37.980;-63.602;2023-04-24T10:24:18;12.07;;;7.75;;
59960;SDS011;55902;-37.980;-63.602;2023-04-24T10:26:48;12.27;;;7.82;;
59960;SDS011;55902;-37.980;-63.602;2023-04-24T10:29:16;10.85;;;7.35;;
59960;SDS011;55902;-37.980;-63.602;2023-04-24T10:31:45;13.35;;;7.80;;
59960;SDS011;55902;-37.980;-63.602;2023-04-24T10:34:12;10.77;;;7.45;;
59960;SDS011;55902;-37.980;-63.602;2023-04-24T10:36:41;12.95;;;7.88;;
59960;SDS011;55902;-37.980;-63.602;2023-04-24T10:39:12;14.27;;;7.30;;
59960;SDS011;55902;-37.980;-63.602;2023-04-24T10:41:44;13.18;;;7.82;;
59960;SDS011;55902;-37.980;-63.602;2023-04-24T10:44:15;11.40;;;6.80;;
59960;SDS011;55902;-37.980;-63.602;2023-04-24T10:46:43;11.63;;;6.95;;
59960;SDS011;55902;-37.980;-63.602;2023-04-24T10:49:15;11.38;;;7.45;;
59960;SDS011;55902;-37.980;-63.602;2023-04-24T10:52:05;13.35;;;6.90;;
59960;SDS011;55902;-37.980;-63.602;2023-04-24T10:54:35;11.43;;;7.00;;
59960;SDS011;55902;-37.980;-63.602;2023-04-24T10:59:49;10.45;;;7.18;;
59960;SDS011;55902;-37.980;-63.602;2023-04-24T11:02:19;15.15;;;7.75;;
59960;SDS011;55902;-37.980;-63.602;2023-04-24T11:05:04;15.80;;;7.25;;
59960;SDS011;55902;-37.980;-63.602;2023-04-24T11:10:54;15.45;;;7.38;;
59960;SDS011;55902;-37.980;-63.602;2023-04-24T11:13:27;14.27;;;7.35;;
59960;SDS011;55902;-37.980;-63.602;2023-04-24T11:16:32;11.05;;;7.35;;
59960;SDS011;55902;-37.980;-63.602;2023-04-24T11:19:20;15.85;;;7.65;;
59960;SDS011;55902;-37.980;-63.602;2023-04-24T11:21:57;16.42;;;7.57;;
59960;SDS011;55902;-37.980;-63.602;2023-04-24T11:34:49;13.18;;;7.28;;
59960;SDS011;55902;-37.980;-63.602;2023-04-24T11:37:18;12.40;;;7.43;;
59960;SDS011;55902;-37.980;-63.602;2023-04-24T11:39:45;11.88;;;6.93;;
59960;SDS011;55902;-37.980;-63.602;2023-04-24T11:42:15;14.93;;;7.72;;
59960;SDS011;55902;-37.980;-63.602;2023-04-24T11:44:42;12.75;;;6.93;;
59960;SDS011;55902;-37.980;-63.602;2023-04-24T11:47:10;10.52;;;6.75;;
59960;SDS011;55902;-37.980;-63.602;2023-04-24T11:49:37;12.50;;;6.60;;
59960;SDS011;55902;-37.980;-63.602;2023-04-24T11:52:05;11.75;;;6.35;;
59960;SDS011;55902;-37.980;-63.602;2023-04-24T11:54:32;12.50;;;7.18;;
59960;SDS011;55902;-37.980;-63.602;2023-04-24T11:56:59;10.88;;;6.78;;
59960;SDS011;55902;-37.980;-63.602;2023-04-24T11:59:37;16.80;;;8.63;;
59960;SDS011;55902;-37.980;-63.602;2023-04-24T12:02:05;13.60;;;7.53;;
59960;SDS011;55902;-37.980;-63.602;2023-04-24T12:04:39;13.52;;;7.13;;
59960;SDS011;55902;-37.980;-63.602;2023-04-24T12:07:06;13.82;;;8.18;;
59960;SDS011;55902;-37.980;-63.602;2023-04-24T12:09:41;12.95;;;8.00;;
59960;SDS011;55902;-37.980;-63.602;2023-04-24T12:12:12;10.70;;;6.72;;
59960;SDS011;55902;-37.980;-63.602;2023-04-24T12:14:49;12.00;;;6.05;;
59960;SDS011;55902;-37.980;-63.602;2023-04-24T12:17:17;9.52;;;5.50;;
59960;SDS011;55902;-37.980;-63.602;2023-04-24T12:19:50;13.40;;;5.50;;
59960;SDS011;55902;-37.980;-63.602;2023-04-24T12:22:17;8.32;;;5.10;;
59960;SDS011;55902;-37.980;-63.602;2023-04-24T12:24:57;8.77;;;5.28;;
59960;SDS011;55902;-37.980;-63.602;2023-04-24T12:27:28;10.27;;;5.70;;
59960;SDS011;55902;-37.980;-63.602;2023-04-24T12:30:03;12.48;;;5.10;;
59960;SDS011;55902;-37.980;-63.602;2023-04-24T12:32:32;10.00;;;4.88;;
59960;SDS011;55902;-37.980;-63.602;2023-04-24T12:35:03;6.80;;;4.75;;
59960;SDS011;55902;-37.980;-63.602;2023-04-24T12:37:32;9.37;;;4.73;;
59960;SDS011;55902;-37.980;-63.602;2023-04-24T12:40:03;11.85;;;4.80;;
59960;SDS011;55902;-37.980;-63.602;2023-04-24T12:42:32;10.23;;;4.78;;
59960;SDS011;55902;-37.980;-63.602;2023-04-24T12:45:02;11.07;;;4.95;;
59960;SDS011;55902;-37.980;-63.602;2023-04-24T12:47:31;8.10;;;4.80;;
59960;SDS011;55902;-37.980;-63.602;2023-04-24T12:50:01;12.52;;;4.55;;
59960;SDS011;55902;-37.980;-63.602;2023-04-24T12:52:51;10.45;;;4.70;;
59960;SDS011;55902;-37.980;-63.602;2023-04-24T12:55:18;12.07;;;4.43;;
59960;SDS011;55902;-37.980;-63.602;2023-04-24T12:57:46;8.02;;;4.47;;
59960;SDS011;55902;-37.980;-63.602;2023-04-24T13:00:19;8.35;;;4.32;;
59960;SDS011;55902;-37.980;-63.602;2023-04-24T13:02:47;7.63;;;4.15;;
59960;SDS011;55902;-37.980;-63.602;2023-04-24T13:05:15;11.63;;;4.47;;
59960;SDS011;55902;-37.980;-63.602;2023-04-24T13:07:50;7.38;;;3.83;;
59960;SDS011;55902;-37.980;-63.602;2023-04-24T13:10:17;7.47;;;4.00;;
59960;SDS011;55902;-37.980;-63.602;2023-04-24T13:12:45;10.77;;;4.13;;
59960;SDS011;55902;-37.980;-63.602;2023-04-24T13:15:18;8.65;;;4.10;;
59960;SDS011;55902;-37.980;-63.602;2023-04-24T13:17:46;8.85;;;4.15;;
59960;SDS011;55902;-37.980;-63.602;2023-04-24T13:20:13;7.72;;;4.00;;
59960;SDS011;55902;-37.980;-63.602;2023-04-24T13:22:40;7.90;;;3.72;;
59960;SDS011;55902;-37.980;-63.602;2023-04-24T13:25:11;8.75;;;3.80;;
59960;SDS011;55902;-37.980;-63.602;2023-04-24T13:27:38;8.20;;;4.20;;
59960;SDS011;55902;-37.980;-63.602;2023-04-24T13:30:06;8.52;;;3.63;;
59960;SDS011;55902;-37.980;-63.602;2023-04-24T13:32:33;8.85;;;4.65;;
59960;SDS011;55902;-37.980;-63.602;2023-04-24T13:35:00;7.85;;;4.82;;
59960;SDS011;55902;-37.980;-63.602;2023-04-24T13:37:27;8.02;;;3.38;;
59960;SDS011;55902;-37.980;-63.602;2023-04-24T13:39:55;9.43;;;3.65;;
59960;SDS011;55902;-37.980;-63.602;2023-04-24T13:42:22;9.25;;;3.88;;
59960;SDS011;55902;-37.980;-63.602;2023-04-24T13:44:49;19.02;;;13.40;;
59960;SDS011;55902;-37.980;-63.602;2023-04-24T13:47:18;17.40;;;7.13;;
59960;SDS011;55902;-37.980;-63.602;2023-04-24T13:49:45;10.45;;;4.43;;
59960;SDS011;55902;-37.980;-63.602;2023-04-24T13:52:12;6.82;;;3.42;;
59960;SDS011;55902;-37.980;-63.602;2023-04-24T13:54:39;11.25;;;4.63;;
59960;SDS011;55902;-37.980;-63.602;2023-04-24T13:57:06;7.28;;;3.50;;
59960;SDS011;55902;-37.980;-63.602;2023-04-24T13:59:37;10.40;;;3.60;;
59960;SDS011;55902;-37.980;-63.602;2023-04-24T14:02:08;8.45;;;3.42;;
59960;SDS011;55902;-37.980;-63.602;2023-04-24T14:05:02;9.45;;;3.72;;
59960;SDS011;55902;-37.980;-63.602;2023-04-24T14:07:34;9.10;;;3.80;;
59960;SDS011;55902;-37.980;-63.602;2023-04-24T14:10:01;6.70;;;3.65;;
59960;SDS011;55902;-37.980;-63.602;2023-04-24T14:12:29;8.85;;;3.95;;
59960;SDS011;55902;-37.980;-63.602;2023-04-24T14:14:56;11.23;;;4.00;;
59960;SDS011;55902;-37.980;-63.602;2023-04-24T14:17:25;7.93;;;4.13;;
59960;SDS011;55902;-37.980;-63.602;2023-04-24T14:19:52;8.95;;;4.18;;
59960;SDS011;55902;-37.980;-63.602;2023-04-24T14:22:21;8.32;;;4.95;;
59960;SDS011;55902;-37.980;-63.602;2023-04-24T14:24:48;8.63;;;4.50;;
59960;SDS011;55902;-37.980;-63.602;2023-04-24T14:27:16;8.27;;;4.30;;
59960;SDS011;55902;-37.980;-63.602;2023-04-24T14:29:45;10.05;;;5.13;;
59960;SDS011;55902;-37.980;-63.602;2023-04-24T14:32:13;8.38;;;4.68;;
59960;SDS011;55902;-37.980;-63.602;2023-04-24T14:34:41;8.65;;;5.05;;
59960;SDS011;55902;-37.980;-63.602;2023-04-24T14:37:11;11.82;;;5.40;;
59960;SDS011;55902;-37.980;-63.602;2023-04-24T14:39:39;17.75;;;8.95;;
59960;SDS011;55902;-37.980;-63.602;2023-04-24T14:42:06;12.52;;;8.50;;